Terminal Aerodrome Forecast
Issued by NWS

Home | Current Version | Previous Version | Text Only | Print | Product List | Glossary On
Versions: 1 2 3 4 5 6 7 8 9 10 11 12 13 14 15 16 17 18 19 20 21 22 23 24 25 26 27 28 29 30 31 32 33 34 35 36 37 38 39 40 41 42 43 44 45 46 47 48 49 50
000
FTUS45 KPSR 280500 CCA
TAFIWA
TAF COR
KIWA 280558Z 2806/2906 12013G20KT P6SM VCTS BKN100CB BKN150
      TEMPO 2806/2807 -TSRA BKN090CB
     FM280800 12008KT P6SM BKN100 BKN150
     FM281700 18007KT P6SM FEW120 SCT250
     FM282200 29007KT P6SM FEW120 SCT200
     FM290200 14007KT P6SM FEW120 BKN200
      AMD LTD TO CLD VIS AND WIND TIL 281300=

USA.gov is the U.S. government's official web portal to all federal, state and local government web resources and services.